Terminal Aerodrome Forecast
Issued by NWS

Current Version | Previous Version | Graphics & Text | Print | Product List | Glossary On
Versions: 1 2 3 4 5 6 7 8 9 10 11 12 13 14 15 16 17 18
000
FTUS41 KPBZ 250522
TAFHLG
TAF
KHLG 250522Z 2506/2606 08006KT P6SM VCSH OVC050
     FM250900 06003KT 5SM BR OVC030
     FM251600 32007KT P6SM VCSH OVC020
     FM252000 32011KT P6SM VCSH OVC008
     FM252300 32011KT P6SM BKN015=

USA.gov is the U.S. government's official web portal to all federal, state and local government web resources and services.